LiveATC.Net - Listen to live air traffic control over the Internet!


ICAO: KVPZ  IATA: VPZ   Airport: Porter County Regional Airport
City: Valparaiso   State/Province: Indiana
Country: United States   Continent: North America
KVPZ METAR Weather: KVPZ 231556Z AUTO VRB03KT 10SM CLR 23/15 A3021 RMK AO2 SLP229 T02280150
KVPZ Flight Activity (FlightAware)
KVPZ Airport Info   (AirNav) (iFlightPlanner)
KVPZ VFR Sectional Chart   (iFlightPlanner) 
KVPZ IFR Low Chart   (iFlightPlanner) 

KVPZ CTAF/Clearance/App
Feed Status: DOWN
Last heard on: 2018-05-18 20:11:02 (4 days 20 hours 33 minutes ago)
KVPZ CTAF/Clearance/App Audio Archives
FacilityFrequency
Clearance Delivery (South Bend Approach)120.525
Porter County CTAF/UNICOM122.725
South Bend Approach132.050

NOTICE

Unauthorized use prohibited. See LiveATC.net Terms of Service


Find LiveATC Audio Streams


Airport/ARTCC Code

Frequency Search
(e.g., 124.400, 128.75)
Site-wide search
 


Browse LiveATC Feeds
LiveATC Coverage Map
Top 50 LiveATC Feeds
Bad Weather Areas

LiveATC FAQ
Offer a LiveATC Feed
Contact LiveATC.net
Press Inquiries

LiveATC on iPhone
LiveATC on Android

Windows Phone
Windows 8/10

LiveATC Mobile
(Mobile browser)

ATC Audio Archives
Interesting Recordings

LiveATC Forums


Home Page
About LiveATC.net
Make a Donation
Terms of Use
Privacy Policy

Canadian Air Freqs

AIRMETs/SIGMETs

FAA Airport Status
Nat'l Airspace Status
Arrival Demand Charts


Server Software By:
Icecast.org
Liquidsoap